sensor_id;sensor_type;location;lat;lon;timestamp;P1;P2;P0
36525;PMS5003;74736;46.798;9.824;2023-12-20T09:10:12;2;2;
36525;PMS5003;74736;46.798;9.824;2023-12-20T09:12:39;1;1;
36525;PMS5003;74736;46.798;9.824;2023-12-20T09:15:06;0;0;
36525;PMS5003;74736;46.798;9.824;2023-12-20T09:17:33;3;2;
36525;PMS5003;74736;46.798;9.824;2023-12-20T09:20:01;4;4;
36525;PMS5003;74736;46.798;9.824;2023-12-20T09:22:29;5;3;
36525;PMS5003;74736;46.798;9.824;2023-12-20T09:24:56;2;2;
36525;PMS5003;74736;46.798;9.824;2023-12-20T09:27:23;1;1;
36525;PMS5003;74736;46.798;9.824;2023-12-20T09:29:50;7;3;
36525;PMS5003;74736;46.798;9.824;2023-12-20T09:32:17;2;2;
36525;PMS5003;74736;46.798;9.824;2023-12-20T09:34:44;2;2;
36525;PMS5003;74736;46.798;9.824;2023-12-20T09:37:11;3;3;
36525;PMS5003;74736;46.798;9.824;2023-12-20T09:39:39;2;2;
36525;PMS5003;74736;46.798;9.824;2023-12-20T09:42:07;3;2;
36525;PMS5003;74736;46.798;9.824;2023-12-20T09:44:36;3;3;
36525;PMS5003;74736;46.798;9.824;2023-12-20T09:47:04;4;2;
36525;PMS5003;74736;46.798;9.824;2023-12-20T09:49:31;1;1;
36525;PMS5003;74736;46.798;9.824;2023-12-20T09:51:59;3;3;
36525;PMS5003;74736;46.798;9.824;2023-12-20T09:54:28;3;2;
36525;PMS5003;74736;46.798;9.824;2023-12-20T09:56:55;1;1;
36525;PMS5003;74736;46.798;9.824;2023-12-20T09:59:22;3;2;
36525;PMS5003;74736;46.798;9.824;2023-12-20T10:01:49;2;2;
36525;PMS5003;74736;46.798;9.824;2023-12-20T10:04:18;2;2;
36525;PMS5003;74736;46.798;9.824;2023-12-20T10:06:45;0;0;
36525;PMS5003;74736;46.798;9.824;2023-12-20T10:09:12;2;2;
36525;PMS5003;74736;46.798;9.824;2023-12-20T10:11:39;1;1;
36525;PMS5003;74736;46.798;9.824;2023-12-20T10:14:06;5;2;
36525;PMS5003;74736;46.798;9.824;2023-12-20T10:16:34;3;3;
36525;PMS5003;74736;46.798;9.824;2023-12-20T10:19:01;2;0;
36525;PMS5003;74736;46.798;9.824;2023-12-20T10:21:28;3;3;
36525;PMS5003;74736;46.798;9.824;2023-12-20T10:23:54;3;3;
36525;PMS5003;74736;46.798;9.824;2023-12-20T10:26:23;1;1;
36525;PMS5003;74736;46.798;9.824;2023-12-20T10:28:51;1;1;
36525;PMS5003;74736;46.798;9.824;2023-12-20T10:31:26;2;2;
36525;PMS5003;74736;46.798;9.824;2023-12-20T10:33:53;2;1;
36525;PMS5003;74736;46.798;9.824;2023-12-20T10:36:22;3;3;
36525;PMS5003;74736;46.798;9.824;2023-12-20T10:38:49;4;4;
36525;PMS5003;74736;46.798;9.824;2023-12-20T10:41:18;3;3;
36525;PMS5003;74736;46.798;9.824;2023-12-20T10:43:49;5;4;
36525;PMS5003;74736;46.798;9.824;2023-12-20T10:46:18;6;6;
36525;PMS5003;74736;46.798;9.824;2023-12-20T10:48:45;12;12;
36525;PMS5003;74736;46.798;9.824;2023-12-20T10:51:14;8;7;
36525;PMS5003;74736;46.798;9.824;2023-12-20T10:53:44;6;6;
36525;PMS5003;74736;46.798;9.824;2023-12-20T10:56:15;5;5;
36525;PMS5003;74736;46.798;9.824;2023-12-20T10:58:43;6;6;
36525;PMS5003;74736;46.798;9.824;2023-12-20T11:01:12;4;3;
36525;PMS5003;74736;46.798;9.824;2023-12-20T11:03:43;5;4;
36525;PMS5003;74736;46.798;9.824;2023-12-20T11:06:18;5;5;
36525;PMS5003;74736;46.798;9.824;2023-12-20T11:08:50;10;8;
36525;PMS5003;74736;46.798;9.824;2023-12-20T11:11:23;8;8;
36525;PMS5003;74736;46.798;9.824;2023-12-20T11:13:58;4;4;
36525;PMS5003;74736;46.798;9.824;2023-12-20T11:16:30;6;6;
36525;PMS5003;74736;46.798;9.824;2023-12-20T11:18:57;5;5;
36525;PMS5003;74736;46.798;9.824;2023-12-20T11:21:30;6;5;
36525;PMS5003;74736;46.798;9.824;2023-12-20T11:23:57;5;5;
36525;PMS5003;74736;46.798;9.824;2023-12-20T11:26:26;2;2;
36525;PMS5003;74736;46.798;9.824;2023-12-20T11:28:54;2;0;
36525;PMS5003;74736;46.798;9.824;2023-12-20T11:31:55;4;1;
36525;PMS5003;74736;46.798;9.824;2023-12-20T11:34:21;2;1;
36525;PMS5003;74736;46.798;9.824;2023-12-20T11:36:56;3;3;
36525;PMS5003;74736;46.798;9.824;2023-12-20T11:39:24;2;2;
36525;PMS5003;74736;46.798;9.824;2023-12-20T11:41:51;2;1;
36525;PMS5003;74736;46.798;9.824;2023-12-20T11:44:20;2;1;
36525;PMS5003;74736;46.798;9.824;2023-12-20T11:46:47;3;2;
36525;PMS5003;74736;46.798;9.824;2023-12-20T11:49:14;1;1;
36525;PMS5003;74736;46.798;9.824;2023-12-20T11:51:41;2;1;
36525;PMS5003;74736;46.798;9.824;2023-12-20T11:54:08;1;1;
36525;PMS5003;74736;46.798;9.824;2023-12-20T11:56:35;2;2;
36525;PMS5003;74736;46.798;9.824;2023-12-20T11:59:03;2;1;
36525;PMS5003;74736;46.798;9.824;2023-12-20T12:01:31;4;3;
36525;PMS5003;74736;46.798;9.824;2023-12-20T12:04:05;4;3;
36525;PMS5003;74736;46.798;9.824;2023-12-20T12:06:32;3;3;
36525;PMS5003;74736;46.798;9.824;2023-12-20T12:08:59;3;3;
36525;PMS5003;74736;46.798;9.824;2023-12-20T12:11:26;3;3;
36525;PMS5003;74736;46.798;9.824;2023-12-20T12:13:53;3;3;
36525;PMS5003;74736;46.798;9.824;2023-12-20T12:16:20;2;2;
36525;PMS5003;74736;46.798;9.824;2023-12-20T12:18:54;0;0;
36525;PMS5003;74736;46.798;9.824;2023-12-20T12:21:22;3;3;
36525;PMS5003;74736;46.798;9.824;2023-12-20T12:23:49;2;2;
36525;PMS5003;74736;46.798;9.824;2023-12-20T12:26:16;2;1;
36525;PMS5003;74736;46.798;9.824;2023-12-20T12:28:43;3;2;
36525;PMS5003;74736;46.798;9.824;2023-12-20T12:31:13;2;2;
36525;PMS5003;74736;46.798;9.824;2023-12-20T12:33:41;3;3;
36525;PMS5003;74736;46.798;9.824;2023-12-20T12:36:07;3;3;
36525;PMS5003;74736;46.798;9.824;2023-12-20T12:38:34;1;1;
36525;PMS5003;74736;46.798;9.824;2023-12-20T12:41:01;3;2;
36525;PMS5003;74736;46.798;9.824;2023-12-20T12:43:28;1;1;
36525;PMS5003;74736;46.798;9.824;2023-12-20T12:45:56;1;1;
36525;PMS5003;74736;46.798;9.824;2023-12-20T12:48:22;3;2;
36525;PMS5003;74736;46.798;9.824;2023-12-20T12:50:49;1;1;
36525;PMS5003;74736;46.798;9.824;2023-12-20T12:53:16;1;1;
36525;PMS5003;74736;46.798;9.824;2023-12-20T12:55:43;0;0;
36525;PMS5003;74736;46.798;9.824;2023-12-20T12:58:10;2;1;
36525;PMS5003;74736;46.798;9.824;2023-12-20T13:00:37;2;2;
36525;PMS5003;74736;46.798;9.824;2023-12-20T13:03:04;2;2;
36525;PMS5003;74736;46.798;9.824;2023-12-20T13:05:31;2;2;
36525;PMS5003;74736;46.798;9.824;2023-12-20T13:07:58;0;0;
36525;PMS5003;74736;46.798;9.824;2023-12-20T13:10:25;2;1;
36525;PMS5003;74736;46.798;9.824;2023-12-20T13:12:52;0;0;
36525;PMS5003;74736;46.798;9.824;2023-12-20T13:15:19;3;2;
36525;PMS5003;74736;46.798;9.824;2023-12-20T13:17:45;1;1;
36525;PMS5003;74736;46.798;9.824;2023-12-20T13:20:12;0;0;
36525;PMS5003;74736;46.798;9.824;2023-12-20T13:22:39;0;0;
36525;PMS5003;74736;46.798;9.824;2023-12-20T13:25:06;2;1;
36525;PMS5003;74736;46.798;9.824;2023-12-20T13:27:34;1;1;
36525;PMS5003;74736;46.798;9.824;2023-12-20T13:30:01;2;2;
36525;PMS5003;74736;46.798;9.824;2023-12-20T13:32:28;2;2;
36525;PMS5003;74736;46.798;9.824;2023-12-20T13:34:55;1;1;
36525;PMS5003;74736;46.798;9.824;2023-12-20T13:37:22;0;0;
36525;PMS5003;74736;46.798;9.824;2023-12-20T13:39:49;0;0;
36525;PMS5003;74736;46.798;9.824;2023-12-20T13:42:16;0;0;
36525;PMS5003;74736;46.798;9.824;2023-12-20T13:44:42;1;1;
36525;PMS5003;74736;46.798;9.824;2023-12-20T13:47:09;1;1;
36525;PMS5003;74736;46.798;9.824;2023-12-20T13:49:36;1;1;
36525;PMS5003;74736;46.798;9.824;2023-12-20T13:52:03;1;1;
36525;PMS5003;74736;46.798;9.824;2023-12-20T13:54:30;1;1;
36525;PMS5003;74736;46.798;9.824;2023-12-20T13:56:57;1;1;
36525;PMS5003;74736;46.798;9.824;2023-12-20T13:59:23;1;1;
36525;PMS5003;74736;46.798;9.824;2023-12-20T14:01:50;0;0;
36525;PMS5003;74736;46.798;9.824;2023-12-20T14:04:17;2;2;
36525;PMS5003;74736;46.798;9.824;2023-12-20T14:06:44;1;1;
36525;PMS5003;74736;46.798;9.824;2023-12-20T14:09:11;1;1;
36525;PMS5003;74736;46.798;9.824;2023-12-20T14:11:38;2;2;
36525;PMS5003;74736;46.798;9.824;2023-12-20T14:14:05;1;1;
36525;PMS5003;74736;46.798;9.824;2023-12-20T14:16:31;2;2;
36525;PMS5003;74736;46.798;9.824;2023-12-20T14:18:58;0;0;
36525;PMS5003;74736;46.798;9.824;2023-12-20T14:21:25;1;0;
36525;PMS5003;74736;46.798;9.824;2023-12-20T14:23:52;0;0;
36525;PMS5003;74736;46.798;9.824;2023-12-20T14:26:18;1;1;
36525;PMS5003;74736;46.798;9.824;2023-12-20T14:28:45;2;1;
36525;PMS5003;74736;46.798;9.824;2023-12-20T14:31:12;0;0;
36525;PMS5003;74736;46.798;9.824;2023-12-20T14:33:39;1;1;
36525;PMS5003;74736;46.798;9.824;2023-12-20T14:36:06;1;1;
36525;PMS5003;74736;46.798;9.824;2023-12-20T14:38:34;1;1;
36525;PMS5003;74736;46.798;9.824;2023-12-20T14:41:01;1;1;
36525;PMS5003;74736;46.798;9.824;2023-12-20T14:43:28;1;1;
36525;PMS5003;74736;46.798;9.824;2023-12-20T14:45:55;1;1;
36525;PMS5003;74736;46.798;9.824;2023-12-20T14:48:22;2;1;
36525;PMS5003;74736;46.798;9.824;2023-12-20T14:50:49;0;0;
36525;PMS5003;74736;46.798;9.824;2023-12-20T14:53:16;2;2;
36525;PMS5003;74736;46.798;9.824;2023-12-20T14:55:43;0;0;
36525;PMS5003;74736;46.798;9.824;2023-12-20T14:58:09;1;1;
36525;PMS5003;74736;46.798;9.824;2023-12-20T15:00:36;2;2;
36525;PMS5003;74736;46.798;9.824;2023-12-20T15:03:03;0;0;
36525;PMS5003;74736;46.798;9.824;2023-12-20T15:05:31;0;0;
36525;PMS5003;74736;46.798;9.824;2023-12-20T15:07:58;1;1;
36525;PMS5003;74736;46.798;9.824;2023-12-20T15:10:25;1;1;
36525;PMS5003;74736;46.798;9.824;2023-12-20T15:12:52;1;1;
36525;PMS5003;74736;46.798;9.824;2023-12-20T15:15:19;2;2;
36525;PMS5003;74736;46.798;9.824;2023-12-20T15:17:46;1;1;
36525;PMS5003;74736;46.798;9.824;2023-12-20T15:20:13;2;2;
36525;PMS5003;74736;46.798;9.824;2023-12-20T15:22:40;1;1;
36525;PMS5003;74736;46.798;9.824;2023-12-20T15:25:07;1;1;
36525;PMS5003;74736;46.798;9.824;2023-12-20T15:27:35;1;1;
36525;PMS5003;74736;46.798;9.824;2023-12-20T15:30:01;2;2;
36525;PMS5003;74736;46.798;9.824;2023-12-20T15:32:29;3;2;
36525;PMS5003;74736;46.798;9.824;2023-12-20T15:34:56;3;3;
36525;PMS5003;74736;46.798;9.824;2023-12-20T15:37:23;2;2;
36525;PMS5003;74736;46.798;9.824;2023-12-20T15:39:50;4;3;
36525;PMS5003;74736;46.798;9.824;2023-12-20T15:42:17;1;1;
36525;PMS5003;74736;46.798;9.824;2023-12-20T15:44:44;3;3;
36525;PMS5003;74736;46.798;9.824;2023-12-20T15:47:10;2;2;
36525;PMS5003;74736;46.798;9.824;2023-12-20T15:49:37;2;2;
36525;PMS5003;74736;46.798;9.824;2023-12-20T15:52:04;3;2;
36525;PMS5003;74736;46.798;9.824;2023-12-20T15:54:32;1;1;
36525;PMS5003;74736;46.798;9.824;2023-12-20T15:56:59;1;1;
36525;PMS5003;74736;46.798;9.824;2023-12-20T15:59:26;1;1;
36525;PMS5003;74736;46.798;9.824;2023-12-20T16:01:53;1;1;
36525;PMS5003;74736;46.798;9.824;2023-12-20T16:04:19;2;2;
36525;PMS5003;74736;46.798;9.824;2023-12-20T16:06:46;0;0;
36525;PMS5003;74736;46.798;9.824;2023-12-20T16:09:13;2;1;
36525;PMS5003;74736;46.798;9.824;2023-12-20T16:11:40;3;2;
36525;PMS5003;74736;46.798;9.824;2023-12-20T16:14:07;1;1;
36525;PMS5003;74736;46.798;9.824;2023-12-20T16:16:34;1;1;
36525;PMS5003;74736;46.798;9.824;2023-12-20T16:19:01;1;1;
36525;PMS5003;74736;46.798;9.824;2023-12-20T16:21:29;1;1;
36525;PMS5003;74736;46.798;9.824;2023-12-20T16:23:55;2;2;
36525;PMS5003;74736;46.798;9.824;2023-12-20T16:26:22;1;1;
36525;PMS5003;74736;46.798;9.824;2023-12-20T16:28:49;0;0;
36525;PMS5003;74736;46.798;9.824;2023-12-20T16:31:16;0;0;
36525;PMS5003;74736;46.798;9.824;2023-12-20T16:33:43;2;2;
36525;PMS5003;74736;46.798;9.824;2023-12-20T16:36:10;1;1;
36525;PMS5003;74736;46.798;9.824;2023-12-20T16:38:37;1;1;
36525;PMS5003;74736;46.798;9.824;2023-12-20T16:41:04;2;1;
36525;PMS5003;74736;46.798;9.824;2023-12-20T16:43:30;1;1;
36525;PMS5003;74736;46.798;9.824;2023-12-20T16:45:57;1;1;
36525;PMS5003;74736;46.798;9.824;2023-12-20T16:48:24;1;1;
36525;PMS5003;74736;46.798;9.824;2023-12-20T16:50:51;1;1;
36525;PMS5003;74736;46.798;9.824;2023-12-20T16:53:18;0;0;
36525;PMS5003;74736;46.798;9.824;2023-12-20T16:55:45;1;1;
36525;PMS5003;74736;46.798;9.824;2023-12-20T16:58:12;1;1;
36525;PMS5003;74736;46.798;9.824;2023-12-20T17:00:38;2;2;
36525;PMS5003;74736;46.798;9.824;2023-12-20T17:03:05;1;1;
36525;PMS5003;74736;46.798;9.824;2023-12-20T17:05:32;2;2;
36525;PMS5003;74736;46.798;9.824;2023-12-20T17:07:59;2;2;
36525;PMS5003;74736;46.798;9.824;2023-12-20T17:10:26;2;2;
36525;PMS5003;74736;46.798;9.824;2023-12-20T17:12:53;2;2;
36525;PMS5003;74736;46.798;9.824;2023-12-20T17:15:20;1;1;
36525;PMS5003;74736;46.798;9.824;2023-12-20T17:17:47;1;1;
36525;PMS5003;74736;46.798;9.824;2023-12-20T17:20:14;2;2;
36525;PMS5003;74736;46.798;9.824;2023-12-20T17:22:40;1;1;
36525;PMS5003;74736;46.798;9.824;2023-12-20T17:25:08;1;1;
36525;PMS5003;74736;46.798;9.824;2023-12-20T17:27:34;1;1;
36525;PMS5003;74736;46.798;9.824;2023-12-20T17:30:01;2;2;
36525;PMS5003;74736;46.798;9.824;2023-12-20T17:32:28;1;0;
36525;PMS5003;74736;46.798;9.824;2023-12-20T17:34:55;1;1;
36525;PMS5003;74736;46.798;9.824;2023-12-20T17:37:22;1;1;
36525;PMS5003;74736;46.798;9.824;2023-12-20T17:39:48;2;2;
36525;PMS5003;74736;46.798;9.824;2023-12-20T17:42:15;0;0;
36525;PMS5003;74736;46.798;9.824;2023-12-20T17:44:42;1;1;
36525;PMS5003;74736;46.798;9.824;2023-12-20T17:47:09;3;2;
36525;PMS5003;74736;46.798;9.824;2023-12-20T17:49:36;2;2;
36525;PMS5003;74736;46.798;9.824;2023-12-20T17:52:03;2;2;
36525;PMS5003;74736;46.798;9.824;2023-12-20T17:54:31;3;2;
36525;PMS5003;74736;46.798;9.824;2023-12-20T17:56:57;4;4;
36525;PMS5003;74736;46.798;9.824;2023-12-20T17:59:24;3;3;
36525;PMS5003;74736;46.798;9.824;2023-12-20T18:01:51;2;2;
36525;PMS5003;74736;46.798;9.824;2023-12-20T18:04:18;2;2;
36525;PMS5003;74736;46.798;9.824;2023-12-20T18:06:45;4;4;
36525;PMS5003;74736;46.798;9.824;2023-12-20T18:09:12;3;3;
36525;PMS5003;74736;46.798;9.824;2023-12-20T18:11:39;2;2;
36525;PMS5003;74736;46.798;9.824;2023-12-20T18:14:06;3;3;
36525;PMS5003;74736;46.798;9.824;2023-12-20T18:16:33;5;5;
36525;PMS5003;74736;46.798;9.824;2023-12-20T18:18:59;4;4;
36525;PMS5003;74736;46.798;9.824;2023-12-20T18:21:26;5;5;
36525;PMS5003;74736;46.798;9.824;2023-12-20T18:23:53;4;3;
36525;PMS5003;74736;46.798;9.824;2023-12-20T18:26:20;5;5;
36525;PMS5003;74736;46.798;9.824;2023-12-20T18:28:47;3;3;
36525;PMS5003;74736;46.798;9.824;2023-12-20T18:31:14;4;4;
36525;PMS5003;74736;46.798;9.824;2023-12-20T18:33:41;4;4;
36525;PMS5003;74736;46.798;9.824;2023-12-20T18:36:08;3;3;
36525;PMS5003;74736;46.798;9.824;2023-12-20T18:38:34;3;3;
36525;PMS5003;74736;46.798;9.824;2023-12-20T18:41:01;4;4;
36525;PMS5003;74736;46.798;9.824;2023-12-20T18:43:28;4;4;
36525;PMS5003;74736;46.798;9.824;2023-12-20T18:45:55;5;5;
36525;PMS5003;74736;46.798;9.824;2023-12-20T18:48:22;5;5;
36525;PMS5003;74736;46.798;9.824;2023-12-20T18:50:49;6;6;
36525;PMS5003;74736;46.798;9.824;2023-12-20T18:53:16;5;5;
36525;PMS5003;74736;46.798;9.824;2023-12-20T18:55:43;6;6;
36525;PMS5003;74736;46.798;9.824;2023-12-20T18:58:10;6;6;
36525;PMS5003;74736;46.798;9.824;2023-12-20T19:00:37;6;6;
36525;PMS5003;74736;46.798;9.824;2023-12-20T19:03:04;6;5;
36525;PMS5003;74736;46.798;9.824;2023-12-20T19:05:31;5;5;
36525;PMS5003;74736;46.798;9.824;2023-12-20T19:07:58;3;3;
36525;PMS5003;74736;46.798;9.824;2023-12-20T19:10:25;4;4;
36525;PMS5003;74736;46.798;9.824;2023-12-20T19:12:52;3;3;
36525;PMS5003;74736;46.798;9.824;2023-12-20T19:15:19;3;3;
36525;PMS5003;74736;46.798;9.824;2023-12-20T19:17:46;3;3;
36525;PMS5003;74736;46.798;9.824;2023-12-20T19:20:13;3;3;
36525;PMS5003;74736;46.798;9.824;2023-12-20T19:22:39;2;2;
36525;PMS5003;74736;46.798;9.824;2023-12-20T19:25:06;1;1;
36525;PMS5003;74736;46.798;9.824;2023-12-20T19:27:34;2;2;
36525;PMS5003;74736;46.798;9.824;2023-12-20T19:30:02;2;1;
36525;PMS5003;74736;46.798;9.824;2023-12-20T19:32:30;2;2;
36525;PMS5003;74736;46.798;9.824;2023-12-20T19:34:56;2;2;
36525;PMS5003;74736;46.798;9.824;2023-12-20T19:37:24;2;2;
36525;PMS5003;74736;46.798;9.824;2023-12-20T19:39:51;1;1;
36525;PMS5003;74736;46.798;9.824;2023-12-20T19:42:18;1;1;
36525;PMS5003;74736;46.798;9.824;2023-12-20T19:44:45;1;0;
36525;PMS5003;74736;46.798;9.824;2023-12-20T19:47:11;1;1;
36525;PMS5003;74736;46.798;9.824;2023-12-20T19:49:38;1;1;
36525;PMS5003;74736;46.798;9.824;2023-12-20T19:52:05;1;1;
36525;PMS5003;74736;46.798;9.824;2023-12-20T19:54:32;1;1;
36525;PMS5003;74736;46.798;9.824;2023-12-20T19:56:59;2;2;
36525;PMS5003;74736;46.798;9.824;2023-12-20T19:59:26;1;1;
36525;PMS5003;74736;46.798;9.824;2023-12-20T20:01:53;1;0;
36525;PMS5003;74736;46.798;9.824;2023-12-20T20:04:20;0;0;
36525;PMS5003;74736;46.798;9.824;2023-12-20T20:06:47;0;0;
36525;PMS5003;74736;46.798;9.824;2023-12-20T20:09:13;1;1;
36525;PMS5003;74736;46.798;9.824;2023-12-20T20:11:40;1;1;
36525;PMS5003;74736;46.798;9.824;2023-12-20T20:14:07;0;0;
36525;PMS5003;74736;46.798;9.824;2023-12-20T20:16:34;1;1;
36525;PMS5003;74736;46.798;9.824;2023-12-20T20:19:01;1;1;
36525;PMS5003;74736;46.798;9.824;2023-12-20T20:21:28;0;0;
36525;PMS5003;74736;46.798;9.824;2023-12-20T20:23:54;1;1;
36525;PMS5003;74736;46.798;9.824;2023-12-20T20:26:21;1;1;
36525;PMS5003;74736;46.798;9.824;2023-12-20T20:28:48;1;1;
36525;PMS5003;74736;46.798;9.824;2023-12-20T20:31:15;2;1;
36525;PMS5003;74736;46.798;9.824;2023-12-20T20:33:42;1;1;
36525;PMS5003;74736;46.798;9.824;2023-12-20T20:36:09;2;2;
36525;PMS5003;74736;46.798;9.824;2023-12-20T20:38:36;2;2;
36525;PMS5003;74736;46.798;9.824;2023-12-20T20:41:03;2;2;
36525;PMS5003;74736;46.798;9.824;2023-12-20T20:43:30;1;1;
36525;PMS5003;74736;46.798;9.824;2023-12-20T20:45:56;3;3;
36525;PMS5003;74736;46.798;9.824;2023-12-20T20:48:23;0;0;
36525;PMS5003;74736;46.798;9.824;2023-12-20T20:50:50;3;3;
36525;PMS5003;74736;46.798;9.824;2023-12-20T20:53:17;3;2;
36525;PMS5003;74736;46.798;9.824;2023-12-20T20:55:44;1;1;
36525;PMS5003;74736;46.798;9.824;2023-12-20T20:58:11;1;0;
36525;PMS5003;74736;46.798;9.824;2023-12-20T21:00:38;1;1;
36525;PMS5003;74736;46.798;9.824;2023-12-20T21:03:05;1;1;
36525;PMS5003;74736;46.798;9.824;2023-12-20T21:05:32;1;1;
36525;PMS5003;74736;46.798;9.824;2023-12-20T21:08:00;1;1;
36525;PMS5003;74736;46.798;9.824;2023-12-20T21:10:27;0;0;
36525;PMS5003;74736;46.798;9.824;2023-12-20T21:12:54;1;1;
36525;PMS5003;74736;46.798;9.824;2023-12-20T21:15:21;0;0;
36525;PMS5003;74736;46.798;9.824;2023-12-20T21:17:48;2;2;
36525;PMS5003;74736;46.798;9.824;2023-12-20T21:20:14;0;0;
36525;PMS5003;74736;46.798;9.824;2023-12-20T21:22:41;2;2;
36525;PMS5003;74736;46.798;9.824;2023-12-20T21:25:08;0;0;
36525;PMS5003;74736;46.798;9.824;2023-12-20T21:27:35;1;1;
36525;PMS5003;74736;46.798;9.824;2023-12-20T21:30:02;0;0;
36525;PMS5003;74736;46.798;9.824;2023-12-20T21:32:30;1;1;
36525;PMS5003;74736;46.798;9.824;2023-12-20T21:34:57;2;2;
36525;PMS5003;74736;46.798;9.824;2023-12-20T21:37:23;3;3;
36525;PMS5003;74736;46.798;9.824;2023-12-20T21:39:50;2;2;
36525;PMS5003;74736;46.798;9.824;2023-12-20T21:42:17;3;3;
36525;PMS5003;74736;46.798;9.824;2023-12-20T21:44:44;3;2;
36525;PMS5003;74736;46.798;9.824;2023-12-20T21:47:11;2;2;
36525;PMS5003;74736;46.798;9.824;2023-12-20T21:49:38;2;2;
36525;PMS5003;74736;46.798;9.824;2023-12-20T21:52:05;2;2;
36525;PMS5003;74736;46.798;9.824;2023-12-20T21:54:32;3;3;
36525;PMS5003;74736;46.798;9.824;2023-12-20T21:56:59;3;3;
36525;PMS5003;74736;46.798;9.824;2023-12-20T21:59:25;4;3;
36525;PMS5003;74736;46.798;9.824;2023-12-20T22:01:52;4;4;
36525;PMS5003;74736;46.798;9.824;2023-12-20T22:04:19;4;4;
36525;PMS5003;74736;46.798;9.824;2023-12-20T22:06:46;4;4;
36525;PMS5003;74736;46.798;9.824;2023-12-20T22:09:13;4;4;
36525;PMS5003;74736;46.798;9.824;2023-12-20T22:11:40;4;4;
36525;PMS5003;74736;46.798;9.824;2023-12-20T22:14:08;3;3;
36525;PMS5003;74736;46.798;9.824;2023-12-20T22:16:34;3;3;
36525;PMS5003;74736;46.798;9.824;2023-12-20T22:19:01;2;2;
36525;PMS5003;74736;46.798;9.824;2023-12-20T22:21:29;4;3;
36525;PMS5003;74736;46.798;9.824;2023-12-20T22:23:56;2;2;
36525;PMS5003;74736;46.798;9.824;2023-12-20T22:26:23;3;3;
36525;PMS5003;74736;46.798;9.824;2023-12-20T22:28:50;3;3;
36525;PMS5003;74736;46.798;9.824;2023-12-20T22:31:17;2;2;
36525;PMS5003;74736;46.798;9.824;2023-12-20T22:33:43;3;3;
36525;PMS5003;74736;46.798;9.824;2023-12-20T22:36:11;2;2;
36525;PMS5003;74736;46.798;9.824;2023-12-20T22:38:38;3;3;
36525;PMS5003;74736;46.798;9.824;2023-12-20T22:41:05;4;4;
36525;PMS5003;74736;46.798;9.824;2023-12-20T22:43:32;4;4;
36525;PMS5003;74736;46.798;9.824;2023-12-20T22:45:59;3;3;
36525;PMS5003;74736;46.798;9.824;2023-12-20T22:48:26;3;3;
36525;PMS5003;74736;46.798;9.824;2023-12-20T22:50:53;2;2;
36525;PMS5003;74736;46.798;9.824;2023-12-20T22:53:19;2;2;
36525;PMS5003;74736;46.798;9.824;2023-12-20T22:55:46;2;2;
36525;PMS5003;74736;46.798;9.824;2023-12-20T22:58:13;1;1;
36525;PMS5003;74736;46.798;9.824;2023-12-20T23:00:40;2;2;
36525;PMS5003;74736;46.798;9.824;2023-12-20T23:03:07;2;2;
36525;PMS5003;74736;46.798;9.824;2023-12-20T23:05:34;2;2;
36525;PMS5003;74736;46.798;9.824;2023-12-20T23:08:01;2;2;
36525;PMS5003;74736;46.798;9.824;2023-12-20T23:10:29;3;2;
36525;PMS5003;74736;46.798;9.824;2023-12-20T23:12:56;1;1;
36525;PMS5003;74736;46.798;9.824;2023-12-20T23:15:23;1;1;
36525;PMS5003;74736;46.798;9.824;2023-12-20T23:17:50;1;1;
36525;PMS5003;74736;46.798;9.824;2023-12-20T23:20:17;1;1;
36525;PMS5003;74736;46.798;9.824;2023-12-20T23:22:44;1;1;
36525;PMS5003;74736;46.798;9.824;2023-12-20T23:25:11;2;2;
36525;PMS5003;74736;46.798;9.824;2023-12-20T23:27:37;1;1;
36525;PMS5003;74736;46.798;9.824;2023-12-20T23:30:05;2;2;
36525;PMS5003;74736;46.798;9.824;2023-12-20T23:32:33;1;1;
36525;PMS5003;74736;46.798;9.824;2023-12-20T23:35:00;1;1;
36525;PMS5003;74736;46.798;9.824;2023-12-20T23:37:27;3;3;
36525;PMS5003;74736;46.798;9.824;2023-12-20T23:39:54;3;3;
36525;PMS5003;74736;46.798;9.824;2023-12-20T23:42:20;2;2;
36525;PMS5003;74736;46.798;9.824;2023-12-20T23:44:47;3;3;
36525;PMS5003;74736;46.798;9.824;2023-12-20T23:47:14;2;2;
36525;PMS5003;74736;46.798;9.824;2023-12-20T23:49:41;3;3;
36525;PMS5003;74736;46.798;9.824;2023-12-20T23:52:08;3;3;
36525;PMS5003;74736;46.798;9.824;2023-12-20T23:54:35;2;2;
36525;PMS5003;74736;46.798;9.824;2023-12-20T23:57:02;2;2;
36525;PMS5003;74736;46.798;9.824;2023-12-20T23:59:30;1;1;
